Spabunker Treinta — ECIK — position and weather

sailwx.info

Track history (hours):
 
Tides and Currents Weather Stations Pressure Air Temp Water Temp Dewpoint Dewpoint Depression Visibility Wind Speed Wind Dir Waves Ship Positions

Spabunker Treinta

Last reported at 2017-Nov-19 00:12 UTC. Time now 2017-Nov-19 02:54 UTC.
Position N 36°06' W 005°24'.

Length 86 m; draft 5.9 m.

Type: Tanker. MMSI: 224142890.

Date/timePositionNaut miles runAvg speedWind from/ knotsBaromVisibWave heightAir tempDewpointWater temp
2017-Nov-19 00:12N 36°06' W 005°24'0 0.0
2017-Nov-18 21:35N 36°06' W 005°24'0 0.1
2017-Nov-18 21:29N 36°06' W 005°24'3 2.1
2017-Nov-18 20:02N 36°09' W 005°26'0 0.0
2017-Nov-18 14:46N 36°09' W 005°26'0 0.0
2017-Nov-18 14:15N 36°09' W 005°26'0 0.0
2017-Nov-17 22:13N 36°09' W 005°26'0 0.1
2017-Nov-17 21:17N 36°09' W 005°26'0 0.0
2017-Nov-17 20:41N 36°09' W 005°26'1 2.7
2017-Nov-17 20:12N 36°09' W 005°24'1 0.1
2017-Nov-16 23:28N 36°09' W 005°26'3 5.5
2017-Nov-16 22:56N 36°06' W 005°25'0 0.4
2017-Nov-16 22:30N 36°06' W 005°25'0 0.1
2017-Nov-16 22:01N 36°06' W 005°25'0 0.1
2017-Nov-16 21:29N 36°06' W 005°25'4 0.1
2017-Nov-15 05:22N 36°10' W 005°24'1 0.2
2017-Nov-14 20:43N 36°09' W 005°26'0 0.0
2017-Nov-14 20:28N 36°09' W 005°26'2 0.1
2017-Nov-14 04:41N 36°10' W 005°24'0 0.1
2017-Nov-14 04:26N 36°10' W 005°24'0 0.0
2017-Nov-14 04:00N 36°10' W 005°24'0 0.1
2017-Nov-14 03:30N 36°10' W 005°24'0 0.1
2017-Nov-14 03:00N 36°10' W 005°24'1 2.2
2017-Nov-14 02:30N 36°09' W 005°25'2 3.2
2017-Nov-14 02:00N 36°08' W 005°26'0 0.0
2017-Nov-14 01:28N 36°08' W 005°26'0 0.0
2017-Nov-14 00:57N 36°08' W 005°26'0 0.0
2017-Nov-14 00:30N 36°08' W 005°26'0 0.0
2017-Nov-14 00:00N 36°08' W 005°26'0 0.0
2017-Nov-13 23:30N 36°08' W 005°26'0 0.0
2017-Nov-13 22:56N 36°08' W 005°26'0 0.0
2017-Nov-13 22:30N 36°08' W 005°26'0 0.0
2017-Nov-13 22:00N 36°08' W 005°26'  
Track history (hours):
 
Tides and Currents Weather Stations Pressure Air Temp Water Temp Dewpoint Dewpoint Depression Visibility Wind Speed Wind Dir Waves Ship Positions

Spabunker Treinta

Last reported at 2017-Nov-19 00:12 UTC. Time now 2017-Nov-19 02:54 UTC.
Position N 36°06' W 005°24'.

Length 86 m; draft 5.9 m.

Type: Tanker. MMSI: 224142890.

Date/timePositionNaut miles runAvg speedWind from/ knotsBaromVisibWave heightAir tempDewpointWater temp
2017-Nov-19 00:12N 36°06' W 005°24'0 0.0
2017-Nov-18 21:35N 36°06' W 005°24'0 0.1
2017-Nov-18 21:29N 36°06' W 005°24'3 2.1
2017-Nov-18 20:02N 36°09' W 005°26'0 0.0
2017-Nov-18 14:46N 36°09' W 005°26'0 0.0
2017-Nov-18 14:15N 36°09' W 005°26'0 0.0
2017-Nov-17 22:13N 36°09' W 005°26'0 0.1
2017-Nov-17 21:17N 36°09' W 005°26'0 0.0
2017-Nov-17 20:41N 36°09' W 005°26'1 2.7
2017-Nov-17 20:12N 36°09' W 005°24'1 0.1
2017-Nov-16 23:28N 36°09' W 005°26'3 5.5
2017-Nov-16 22:56N 36°06' W 005°25'0 0.4
2017-Nov-16 22:30N 36°06' W 005°25'0 0.1
2017-Nov-16 22:01N 36°06' W 005°25'0 0.1
2017-Nov-16 21:29N 36°06' W 005°25'4 0.1
2017-Nov-15 05:22N 36°10' W 005°24'1 0.2
2017-Nov-14 20:43N 36°09' W 005°26'0 0.0
2017-Nov-14 20:28N 36°09' W 005°26'2 0.1
2017-Nov-14 04:41N 36°10' W 005°24'0 0.1
2017-Nov-14 04:26N 36°10' W 005°24'0 0.0
2017-Nov-14 04:00N 36°10' W 005°24'0 0.1
2017-Nov-14 03:30N 36°10' W 005°24'0 0.1
2017-Nov-14 03:00N 36°10' W 005°24'1 2.2
2017-Nov-14 02:30N 36°09' W 005°25'2 3.2
2017-Nov-14 02:00N 36°08' W 005°26'0 0.0
2017-Nov-14 01:28N 36°08' W 005°26'0 0.0
2017-Nov-14 00:57N 36°08' W 005°26'0 0.0
2017-Nov-14 00:30N 36°08' W 005°26'0 0.0
2017-Nov-14 00:00N 36°08' W 005°26'0 0.0
2017-Nov-13 23:30N 36°08' W 005°26'0 0.0
2017-Nov-13 22:56N 36°08' W 005°26'0 0.0
2017-Nov-13 22:30N 36°08' W 005°26'0 0.0
2017-Nov-13 22:00N 36°08' W 005°26'  

Dump ship's entire track history